createdAt,value
2023-03-28T00:05:18.925Z,-1.87
2023-03-28T00:25:22.304Z,-2.06
2023-03-28T00:45:25.099Z,-2.13
2023-03-28T01:05:27.898Z,-2.21
2023-03-28T01:25:30.757Z,-2.32
2023-03-28T01:45:33.500Z,-2.35
2023-03-28T02:05:36.235Z,-1.97
2023-03-28T02:25:40.966Z,-0.88
2023-03-28T02:45:43.796Z,0.07
2023-03-28T03:05:46.822Z,0.04
2023-03-28T03:25:52.260Z,0.45
2023-03-28T03:45:54.947Z,0.59
2023-03-28T04:05:59.417Z,-0.09
2023-03-28T04:26:03.748Z,0.65
2023-03-28T04:46:07.482Z,0.73
2023-03-28T05:06:10.352Z,1.01
2023-03-28T05:26:13.370Z,0.82
2023-03-28T05:46:16.424Z,0.39
2023-03-28T06:06:19.392Z,0.44
2023-03-28T06:26:22.289Z,0.79
2023-03-28T06:46:25.076Z,1.29
2023-03-28T07:06:28.305Z,1.36
2023-03-28T07:26:31.246Z,0.94
2023-03-28T07:46:34.556Z,0.92
2023-03-28T08:06:39.471Z,0.93
2023-03-28T08:26:42.432Z,1.08
2023-03-28T08:46:45.199Z,0.36
2023-03-28T09:06:48.161Z,-0.83
2023-03-28T09:26:50.938Z,0.64
2023-03-28T09:46:53.605Z,0.82
2023-03-28T10:06:56.513Z,1.08
2023-03-28T10:26:59.172Z,1.59
2023-03-28T10:47:01.970Z,1.96
2023-03-28T11:07:04.705Z,1.88
2023-03-28T11:27:15.457Z,2.17
2023-03-28T11:47:19.303Z,2.39
2023-03-28T12:07:22.611Z,2.37
2023-03-28T12:27:26.870Z,-0.36
2023-03-28T12:47:29.685Z,0.10
2023-03-28T13:07:32.602Z,1.84
2023-03-28T13:27:35.325Z,0.33
2023-03-28T13:47:38.254Z,0.20
2023-03-28T14:07:41.166Z,0.37
2023-03-28T14:27:43.873Z,0.77
2023-03-28T14:47:46.659Z,1.08
2023-03-28T15:07:49.518Z,0.08
2023-03-28T15:27:52.594Z,1.01
2023-03-28T15:47:58.675Z,0.15
2023-03-28T16:08:01.845Z,0.30
2023-03-28T16:28:04.560Z,0.28
2023-03-28T16:48:08.548Z,-0.38
2023-03-28T17:08:11.695Z,-0.17
2023-03-28T17:28:14.672Z,-0.42
2023-03-28T17:48:17.791Z,-0.33
2023-03-28T18:08:20.638Z,-0.58
2023-03-28T18:28:24.775Z,-1.07
2023-03-28T18:48:29.639Z,-0.91
2023-03-28T19:08:32.676Z,-1.25
2023-03-28T19:28:35.640Z,-1.09
2023-03-28T19:48:38.972Z,-0.84
2023-03-28T20:08:42.661Z,-0.39
2023-03-28T20:28:47.613Z,-0.34
2023-03-28T20:48:53.510Z,-0.96
2023-03-28T21:08:56.974Z,-1.53
2023-03-28T21:29:00.260Z,-1.75
2023-03-28T21:49:03.660Z,-1.99
2023-03-28T22:09:06.598Z,-2.25
2023-03-28T22:29:09.354Z,-2.54
2023-03-28T22:49:14.359Z,-2.81
2023-03-28T23:09:17.275Z,-3.07
2023-03-28T23:29:19.932Z,-3.07
2023-03-28T23:49:22.801Z,-3.18
